Time,TemperatureF,DewpointF,PressureIn,WindDirection,WindDirectionDegrees,WindSpeedMPH,WindSpeedGustMPH,Humidity,HourlyPrecipIn,Conditions,Clouds,dailyrainin,SolarRadiationWatts/m^2,SoftwareType,DateUTC
2013-03-20 00:00:00,59.0,29.0,-100.00,WNW,291,7.0,18.0,32,0.00,,,0.00,0.000000,,2013-03-20 07:00:00,
2013-03-20 00:22:00,59.0,29.0,-100.00,WNW,291,7.0,18.0,32,0.00,,,0.00,0.000000,,2013-03-20 07:22:00,
2013-03-20 00:32:00,59.0,29.0,-100.00,WNW,291,7.0,18.0,32,0.00,,,0.00,0.000000,,2013-03-20 07:32:00,
2013-03-20 00:42:00,59.0,29.0,-100.00,WNW,291,7.0,18.0,32,0.00,,,0.00,0.000000,,2013-03-20 07:42:00,
2013-03-20 00:52:00,59.0,29.0,-100.00,WNW,291,7.0,18.0,32,0.00,,,0.00,0.000000,,2013-03-20 07:52:00,
2013-03-20 01:00:00,55.0,35.0,-100.00,NNW,333,10.0,21.0,46,0.00,,,0.00,0.000000,,2013-03-20 08:00:00,
2013-03-20 01:32:00,55.0,35.0,-100.00,NNW,333,10.0,21.0,46,0.00,,,0.00,0.000000,,2013-03-20 08:32:00,
2013-03-20 01:42:00,55.0,35.0,-100.00,NNW,333,10.0,21.0,46,0.00,,,0.00,0.000000,,2013-03-20 08:42:00,
2013-03-20 01:52:00,55.0,35.0,-100.00,NNW,333,10.0,21.0,46,0.00,,,0.00,0.000000,,2013-03-20 08:52:00,
2013-03-20 02:00:00,53.0,34.0,-100.00,NE,42,0.0,20.0,49,0.00,,,0.00,0.000000,,2013-03-20 09:00:00,
2013-03-20 02:33:00,53.0,34.0,-100.00,NE,42,0.0,20.0,49,0.00,,,0.00,0.000000,,2013-03-20 09:33:00,
2013-03-20 02:43:00,53.0,34.0,-100.00,NE,42,0.0,20.0,49,0.00,,,0.00,0.000000,,2013-03-20 09:43:00,
2013-03-20 02:53:00,53.0,34.0,-100.00,NE,42,0.0,20.0,49,0.00,,,0.00,0.000000,,2013-03-20 09:53:00,
2013-03-20 03:00:00,52.0,33.0,-100.00,WSW,239,0.0,9.0,49,0.00,,,0.00,0.000000,,2013-03-20 10:00:00,
2013-03-20 03:33:00,52.0,33.0,-100.00,WSW,239,0.0,9.0,49,0.00,,,0.00,0.000000,,2013-03-20 10:33:00,
2013-03-20 03:43:00,52.0,33.0,-100.00,WSW,239,0.0,9.0,49,0.00,,,0.00,0.000000,,2013-03-20 10:43:00,
2013-03-20 03:53:00,52.0,33.0,-100.00,WSW,239,0.0,9.0,49,0.00,,,0.00,0.000000,,2013-03-20 10:53:00,
2013-03-20 04:00:00,51.0,32.0,-100.00,NNE,24,0.0,8.0,48,0.00,,,0.00,0.000000,,2013-03-20 11:00:00,
2013-03-20 04:32:00,51.0,32.0,-100.00,NNE,24,0.0,8.0,48,0.00,,,0.00,0.000000,,2013-03-20 11:32:00,
2013-03-20 04:42:00,51.0,32.0,-100.00,NNE,24,0.0,8.0,48,0.00,,,0.00,0.000000,,2013-03-20 11:42:00,
2013-03-20 04:52:00,51.0,32.0,-100.00,NNE,24,0.0,8.0,48,0.00,,,0.00,0.000000,,2013-03-20 11:52:00,
2013-03-20 05:00:00,52.0,33.0,-100.00,SW,232,0.0,11.0,48,0.00,,,0.00,0.000000,,2013-03-20 12:00:00,
2013-03-20 05:33:00,52.0,33.0,-100.00,SW,232,0.0,11.0,48,0.00,,,0.00,0.000000,,2013-03-20 12:33:00,
2013-03-20 05:42:00,52.0,33.0,-100.00,SW,232,0.0,11.0,48,0.00,,,0.00,0.000000,,2013-03-20 12:42:00,
2013-03-20 05:52:00,52.0,33.0,-100.00,SW,232,0.0,11.0,48,0.00,,,0.00,0.000000,,2013-03-20 12:52:00,
2013-03-20 06:00:00,54.0,35.0,-100.00,WNW,297,5.0,12.0,48,0.00,,,-99.99,0.000000,,2013-03-20 13:00:00,
2013-03-20 06:32:00,54.0,35.0,-100.00,WNW,297,5.0,12.0,48,0.00,,,-99.99,0.000000,,2013-03-20 13:32:00,
2013-03-20 06:42:00,54.0,35.0,-100.00,WNW,297,5.0,12.0,48,0.00,,,-99.99,0.000000,,2013-03-20 13:42:00,
2013-03-20 06:53:00,54.0,35.0,-100.00,WNW,297,5.0,12.0,48,0.00,,,-99.99,0.000000,,2013-03-20 13:53:00,
2013-03-20 07:00:00,51.0,34.0,-100.00,West,277,5.0,12.0,51,0.00,,,0.00,0.000000,,2013-03-20 14:00:00,
2013-03-20 07:23:00,51.0,34.0,-100.00,West,277,5.0,12.0,51,0.00,,,0.00,0.000000,,2013-03-20 14:23:00,
2013-03-20 07:34:00,51.0,34.0,-100.00,West,277,5.0,12.0,51,0.00,,,0.00,0.000000,,2013-03-20 14:34:00,
2013-03-20 07:43:00,51.0,34.0,-100.00,West,277,5.0,12.0,51,0.00,,,0.00,0.000000,,2013-03-20 14:43:00,
2013-03-20 07:52:00,51.0,34.0,-100.00,West,277,5.0,12.0,51,0.00,,,0.00,0.000000,,2013-03-20 14:52:00,
2013-03-20 08:00:00,53.0,34.0,-100.00,West,281,4.0,18.0,48,0.00,,,0.00,0.000000,,2013-03-20 15:00:00,
2013-03-20 08:33:00,53.0,34.0,-100.00,West,281,4.0,18.0,48,0.00,,,0.00,0.000000,,2013-03-20 15:33:00,
2013-03-20 08:43:00,53.0,34.0,-100.00,West,281,4.0,18.0,48,0.00,,,0.00,0.000000,,2013-03-20 15:43:00,
2013-03-20 08:53:00,53.0,34.0,-100.00,West,281,4.0,18.0,48,0.00,,,0.00,0.000000,,2013-03-20 15:53:00,
2013-03-20 09:23:00,52.0,31.0,-100.00,WNW,285,6.0,16.0,44,0.00,,,0.00,48.000000,,2013-03-20 16:23:00,
2013-03-20 09:33:00,52.0,31.0,-100.00,WNW,285,6.0,16.0,44,0.00,,,0.00,48.000000,,2013-03-20 16:33:00,
2013-03-20 10:00:00,55.0,31.0,-100.00,West,262,10.0,23.0,40,0.00,,,0.00,219.000000,,2013-03-20 17:00:00,
2013-03-20 10:33:00,55.0,31.0,-100.00,West,262,10.0,23.0,40,0.00,,,0.00,219.000000,,2013-03-20 17:33:00,
2013-03-20 10:42:00,55.0,31.0,-100.00,West,262,10.0,23.0,40,0.00,,,0.00,219.000000,,2013-03-20 17:42:00,
2013-03-20 10:52:00,55.0,31.0,-100.00,West,262,10.0,23.0,40,0.00,,,0.00,219.000000,,2013-03-20 17:52:00,
2013-03-20 11:00:00,63.0,29.0,-100.00,NE,54,6.0,26.0,27,0.00,,,0.00,485.000000,,2013-03-20 18:00:00,
2013-03-20 11:34:00,63.0,29.0,-100.00,NE,54,6.0,26.0,27,0.00,,,0.00,485.000000,,2013-03-20 18:34:00,
2013-03-20 11:43:00,63.0,29.0,-100.00,NE,54,6.0,26.0,27,0.00,,,0.00,485.000000,,2013-03-20 18:43:00,
2013-03-20 11:52:00,63.0,29.0,-100.00,NE,54,6.0,26.0,27,0.00,,,0.00,485.000000,,2013-03-20 18:52:00,
2013-03-20 12:00:00,63.0,29.0,-100.00,WNW,298,5.0,22.0,28,0.00,,,0.00,644.000000,,2013-03-20 19:00:00,
2013-03-20 12:33:00,63.0,29.0,-100.00,WNW,298,5.0,22.0,28,0.00,,,0.00,644.000000,,2013-03-20 19:33:00,
2013-03-20 12:42:00,63.0,29.0,-100.00,WNW,298,5.0,22.0,28,0.00,,,0.00,644.000000,,2013-03-20 19:42:00,
2013-03-20 12:53:00,63.0,29.0,-100.00,WNW,298,5.0,22.0,28,0.00,,,0.00,644.000000,,2013-03-20 19:53:00,
2013-03-20 13:32:00,64.0,28.0,-100.00,WNW,284,10.0,21.0,26,0.00,,,0.00,902.000000,,2013-03-20 20:32:00,
2013-03-20 13:42:00,64.0,28.0,-100.00,WNW,284,10.0,21.0,26,0.00,,,0.00,902.000000,,2013-03-20 20:42:00,
2013-03-20 13:52:00,64.0,28.0,-100.00,WNW,284,10.0,21.0,26,0.00,,,0.00,902.000000,,2013-03-20 20:52:00,
2013-03-20 14:00:00,65.0,35.0,-100.00,SE,143,11.0,24.0,33,0.00,,,0.00,1002.000000,,2013-03-20 21:00:00,
2013-03-20 14:33:00,65.0,35.0,-100.00,SE,143,11.0,24.0,33,0.00,,,0.00,1002.000000,,2013-03-20 21:33:00,
2013-03-20 14:42:00,65.0,35.0,-100.00,SE,143,11.0,24.0,33,0.00,,,0.00,1002.000000,,2013-03-20 21:42:00,
2013-03-20 14:52:00,65.0,35.0,-100.00,SE,143,11.0,24.0,33,0.00,,,0.00,1002.000000,,2013-03-20 21:52:00,
2013-03-20 15:00:00,62.0,33.0,-100.00,West,271,10.0,28.0,34,0.00,,,0.00,898.000000,,2013-03-20 22:00:00,
2013-03-20 15:33:00,62.0,33.0,-100.00,West,271,10.0,28.0,34,0.00,,,0.00,898.000000,,2013-03-20 22:33:00,
2013-03-20 15:43:00,62.0,33.0,-100.00,West,271,10.0,28.0,34,0.00,,,0.00,898.000000,,2013-03-20 22:43:00,
2013-03-20 15:52:00,62.0,33.0,-100.00,West,271,10.0,28.0,34,0.00,,,0.00,898.000000,,2013-03-20 22:52:00,
2013-03-20 16:00:00,60.0,29.0,-100.00,SSW,208,8.0,22.0,31,0.00,,,0.00,740.000000,,2013-03-20 23:00:00,
2013-03-20 16:23:00,60.0,29.0,-100.00,SSW,208,8.0,22.0,31,0.00,,,0.00,740.000000,,2013-03-20 23:23:00,
2013-03-20 16:33:00,60.0,29.0,-100.00,SSW,208,8.0,22.0,31,0.00,,,0.00,740.000000,,2013-03-20 23:33:00,
2013-03-20 16:43:00,60.0,29.0,-100.00,SSW,208,8.0,22.0,31,0.00,,,0.00,740.000000,,2013-03-20 23:43:00,
2013-03-20 16:52:00,60.0,29.0,-100.00,SSW,208,8.0,22.0,31,0.00,,,0.00,740.000000,,2013-03-20 23:52:00,
2013-03-20 17:00:00,60.0,31.0,-100.00,WNW,290,7.0,22.0,33,0.00,,,0.00,471.000000,,2013-03-21 00:00:00,
2013-03-20 17:33:00,60.0,31.0,-100.00,WNW,290,7.0,22.0,33,0.00,,,0.00,471.000000,,2013-03-21 00:33:00,
2013-03-20 17:42:00,60.0,31.0,-100.00,WNW,290,7.0,22.0,33,0.00,,,0.00,471.000000,,2013-03-21 00:42:00,
2013-03-20 17:52:00,60.0,31.0,-100.00,WNW,290,7.0,22.0,33,0.00,,,0.00,471.000000,,2013-03-21 00:52:00,
2013-03-20 18:00:00,58.0,28.0,-100.00,WNW,293,3.0,22.0,32,0.00,,,0.00,319.000000,,2013-03-21 01:00:00,
2013-03-20 18:33:00,58.0,28.0,-100.00,WNW,293,3.0,22.0,32,0.00,,,0.00,319.000000,,2013-03-21 01:33:00,
2013-03-20 18:42:00,58.0,28.0,-100.00,WNW,293,3.0,22.0,32,0.00,,,0.00,319.000000,,2013-03-21 01:42:00,
2013-03-20 18:52:00,58.0,28.0,-100.00,WNW,293,3.0,22.0,32,0.00,,,0.00,319.000000,,2013-03-21 01:52:00,
2013-03-20 19:00:00,58.0,30.0,-100.00,WNW,294,2.0,13.0,34,0.00,,,0.00,181.000000,,2013-03-21 02:00:00,
2013-03-20 19:33:00,58.0,30.0,-100.00,WNW,294,2.0,13.0,34,0.00,,,0.00,181.000000,,2013-03-21 02:33:00,
2013-03-20 19:42:00,58.0,30.0,-100.00,WNW,294,2.0,13.0,34,0.00,,,0.00,181.000000,,2013-03-21 02:42:00,
2013-03-20 19:52:00,58.0,30.0,-100.00,WNW,294,2.0,13.0,34,0.00,,,0.00,181.000000,,2013-03-21 02:52:00,
2013-03-20 20:00:00,55.0,33.0,-100.00,WNW,286,8.0,15.0,44,0.00,,,0.00,53.000000,,2013-03-21 03:00:00,
2013-03-20 20:33:00,55.0,33.0,-100.00,WNW,286,8.0,15.0,44,0.00,,,0.00,53.000000,,2013-03-21 03:33:00,
2013-03-20 20:43:00,55.0,33.0,-100.00,WNW,286,8.0,15.0,44,0.00,,,0.00,53.000000,,2013-03-21 03:43:00,
2013-03-20 20:53:00,55.0,33.0,-100.00,WNW,286,8.0,15.0,44,0.00,,,0.00,53.000000,,2013-03-21 03:53:00,
2013-03-20 21:00:00,52.0,32.0,-100.00,NW,319,3.0,18.0,46,0.00,,,0.00,1.000000,,2013-03-21 04:00:00,
2013-03-20 21:23:00,52.0,32.0,-100.00,NW,319,3.0,18.0,46,0.00,,,0.00,1.000000,,2013-03-21 04:23:00,
2013-03-20 21:33:00,52.0,32.0,-100.00,NW,319,3.0,18.0,46,0.00,,,0.00,1.000000,,2013-03-21 04:33:00,
2013-03-20 21:43:00,52.0,32.0,-100.00,NW,319,3.0,18.0,46,0.00,,,0.00,1.000000,,2013-03-21 04:43:00,
2013-03-20 21:53:00,52.0,32.0,-100.00,NW,319,3.0,18.0,46,0.00,,,0.00,1.000000,,2013-03-21 04:53:00,
2013-03-20 22:00:00,51.0,30.0,-100.00,WNW,285,7.0,20.0,44,0.00,,,0.00,0.000000,,2013-03-21 05:00:00,
2013-03-20 22:22:00,51.0,30.0,-100.00,WNW,285,7.0,20.0,44,0.00,,,0.00,0.000000,,2013-03-21 05:22:00,
2013-03-20 22:33:00,51.0,30.0,-100.00,WNW,285,7.0,20.0,44,0.00,,,0.00,0.000000,,2013-03-21 05:33:00,
2013-03-20 22:44:00,51.0,30.0,-100.00,WNW,285,7.0,20.0,44,0.00,,,0.00,0.000000,,2013-03-21 05:44:00,
2013-03-20 22:52:00,51.0,30.0,-100.00,WNW,285,7.0,20.0,44,0.00,,,0.00,0.000000,,2013-03-21 05:52:00,
2013-03-20 23:00:00,51.0,31.0,-100.00,WNW,292,3.0,19.0,47,0.00,,,0.00,0.000000,,2013-03-21 06:00:00,
2013-03-20 23:23:00,51.0,31.0,-100.00,WNW,292,3.0,19.0,47,0.00,,,0.00,0.000000,,2013-03-21 06:23:00,
2013-03-20 23:32:00,51.0,31.0,-100.00,WNW,292,3.0,19.0,47,0.00,,,0.00,0.000000,,2013-03-21 06:32:00,
2013-03-20 23:42:00,51.0,31.0,-100.00,WNW,292,3.0,19.0,47,0.00,,,0.00,0.000000,,2013-03-21 06:42:00,
2013-03-20 23:52:00,51.0,31.0,-100.00,WNW,292,3.0,19.0,47,0.00,,,0.00,0.000000,,2013-03-21 06:52:00,